Briefing drone pour Beaucaire

Rechercher une autre localisation

Conditions de vol :


Nous sommes le : Mardi 20 avril 2021
Il est 01:21 UTC (03:21 LT)

Lever de soleil : 04:23 UTC (06:23 LT)
Coucher de soleil : 18:57 UTC (20:57 LT)

Météo

L'essentiel des conditions de vol

VIGILANCE MÉTÉO FRANCE - Gard (30)
Pas de vigilances particulieres
CARTE TEMSI
CARTES DES FRONTS
METAR de LFTW
LFTW 191200Z AUTO 03010KT 330V070 CAVOK 18/01 Q1016 NOSIG

Date d'émission: 19/04/2021
Heure d'émission: 12:00 UTC
Vent: 030° (variable du 330° au 070°) pour 10 KT (19 km/h)
Visibilité horizontale: > 10 km
Plafond : Plafond et visibilité OK (CAVOK)
Température: 18 °C
Point de rosée: 1 °C
Humidité: 32%
Pression (QNH): 1016 hPa
Conditions: Pas de changement dans les 2 heures (NOSIG)
TAF de LFTW
LFTW 191900Z 1919/2015 CNL

Conditions prévues :

Heure d'émission : Bulletin éffectué le 19 à 19:00 UTC
Prévision : Valide du 19 a 19:00 UTC au 20 a 15:00 UTC
Nuages : à 0ft (0 m)
WEBCAM POUR BEAUCAIRE

Réglementation

Voler en sécurité

CARTES AERONAUTIQUE 1/500.000
CARTES VAC (LFTW)
SUP AIP




Chargement des AIP...
NOTAM (BEAUCAIRE + Terrain à proximité / FIR )




Chargement des NOTAMS...
CONTACT PREFECTURE 30


Avertissement : Les données mises à disposition sont indicatives. Oxygène Drone ne pourra être tenu responsable de dégâts causés aux biens et aux personnes.